sensor_id;sensor_type;location;lat;lon;timestamp;P1;durP1;ratioP1;P2;durP2;ratioP2
79066;SDS011;68470;50.224;14.348;2023-03-14T00:01:38;13.98;;;7.25;;
79066;SDS011;68470;50.224;14.348;2023-03-14T00:04:04;11.38;;;6.75;;
79066;SDS011;68470;50.224;14.348;2023-03-14T00:06:31;11.18;;;7.10;;
79066;SDS011;68470;50.224;14.348;2023-03-14T00:08:56;11.77;;;6.95;;
79066;SDS011;68470;50.224;14.348;2023-03-14T00:11:22;13.82;;;7.57;;
79066;SDS011;68470;50.224;14.348;2023-03-14T00:13:51;18.40;;;9.70;;
79066;SDS011;68470;50.224;14.348;2023-03-14T00:16:18;14.10;;;8.25;;
79066;SDS011;68470;50.224;14.348;2023-03-14T00:18:45;12.13;;;7.03;;
79066;SDS011;68470;50.224;14.348;2023-03-14T00:21:11;14.18;;;8.50;;
79066;SDS011;68470;50.224;14.348;2023-03-14T00:23:38;12.20;;;7.53;;
79066;SDS011;68470;50.224;14.348;2023-03-14T00:26:07;14.02;;;7.63;;
79066;SDS011;68470;50.224;14.348;2023-03-14T00:28:35;13.57;;;7.63;;
79066;SDS011;68470;50.224;14.348;2023-03-14T00:31:05;12.60;;;8.15;;
79066;SDS011;68470;50.224;14.348;2023-03-14T00:33:32;18.65;;;9.20;;
79066;SDS011;68470;50.224;14.348;2023-03-14T00:35:59;16.13;;;8.77;;
79066;SDS011;68470;50.224;14.348;2023-03-14T00:38:27;17.55;;;9.45;;
79066;SDS011;68470;50.224;14.348;2023-03-14T00:40:53;13.77;;;7.68;;
79066;SDS011;68470;50.224;14.348;2023-03-14T00:43:20;15.88;;;7.93;;
79066;SDS011;68470;50.224;14.348;2023-03-14T00:45:50;17.30;;;10.13;;
79066;SDS011;68470;50.224;14.348;2023-03-14T00:48:17;16.30;;;9.15;;
79066;SDS011;68470;50.224;14.348;2023-03-14T00:50:44;12.48;;;6.80;;
79066;SDS011;68470;50.224;14.348;2023-03-14T00:53:11;13.68;;;8.18;;
79066;SDS011;68470;50.224;14.348;2023-03-14T00:55:37;13.35;;;8.38;;
79066;SDS011;68470;50.224;14.348;2023-03-14T00:58:04;15.65;;;8.75;;
79066;SDS011;68470;50.224;14.348;2023-03-14T01:00:31;16.65;;;8.07;;
79066;SDS011;68470;50.224;14.348;2023-03-14T01:02:58;13.82;;;7.05;;
79066;SDS011;68470;50.224;14.348;2023-03-14T01:05:24;17.80;;;8.73;;
79066;SDS011;68470;50.224;14.348;2023-03-14T01:07:50;15.82;;;8.75;;
79066;SDS011;68470;50.224;14.348;2023-03-14T01:10:16;16.20;;;8.00;;
79066;SDS011;68470;50.224;14.348;2023-03-14T01:12:42;13.95;;;7.45;;
79066;SDS011;68470;50.224;14.348;2023-03-14T01:15:08;16.55;;;7.72;;
79066;SDS011;68470;50.224;14.348;2023-03-14T01:17:34;12.90;;;6.93;;
79066;SDS011;68470;50.224;14.348;2023-03-14T01:20:03;14.82;;;7.38;;
79066;SDS011;68470;50.224;14.348;2023-03-14T01:22:30;15.20;;;7.15;;
79066;SDS011;68470;50.224;14.348;2023-03-14T01:24:56;11.02;;;6.85;;
79066;SDS011;68470;50.224;14.348;2023-03-14T01:27:22;15.23;;;7.45;;
79066;SDS011;68470;50.224;14.348;2023-03-14T01:29:48;11.70;;;6.93;;
79066;SDS011;68470;50.224;14.348;2023-03-14T01:32:16;18.40;;;7.82;;
79066;SDS011;68470;50.224;14.348;2023-03-14T01:34:51;13.05;;;7.00;;
79066;SDS011;68470;50.224;14.348;2023-03-14T01:37:17;15.20;;;7.03;;
79066;SDS011;68470;50.224;14.348;2023-03-14T01:39:43;14.10;;;7.30;;
79066;SDS011;68470;50.224;14.348;2023-03-14T01:42:09;11.93;;;6.88;;
79066;SDS011;68470;50.224;14.348;2023-03-14T01:44:50;14.07;;;7.57;;
79066;SDS011;68470;50.224;14.348;2023-03-14T01:47:18;18.58;;;8.40;;
79066;SDS011;68470;50.224;14.348;2023-03-14T01:50:18;17.55;;;8.05;;
79066;SDS011;68470;50.224;14.348;2023-03-14T01:52:39;17.70;;;7.93;;
79066;SDS011;68470;50.224;14.348;2023-03-14T01:55:12;14.63;;;7.70;;
79066;SDS011;68470;50.224;14.348;2023-03-14T01:57:44;15.52;;;8.52;;
79066;SDS011;68470;50.224;14.348;2023-03-14T02:00:14;14.82;;;7.47;;
79066;SDS011;68470;50.224;14.348;2023-03-14T02:02:44;14.40;;;8.60;;
79066;SDS011;68470;50.224;14.348;2023-03-14T02:05:14;15.55;;;8.27;;
79066;SDS011;68470;50.224;14.348;2023-03-14T02:07:47;10.40;;;6.75;;
79066;SDS011;68470;50.224;14.348;2023-03-14T02:10:17;12.85;;;6.70;;
79066;SDS011;68470;50.224;14.348;2023-03-14T02:12:45;10.30;;;6.50;;
79066;SDS011;68470;50.224;14.348;2023-03-14T02:15:12;12.40;;;8.07;;
79066;SDS011;68470;50.224;14.348;2023-03-14T02:17:38;10.98;;;7.07;;
79066;SDS011;68470;50.224;14.348;2023-03-14T02:20:13;12.75;;;7.28;;
79066;SDS011;68470;50.224;14.348;2023-03-14T02:22:56;13.57;;;8.23;;
79066;SDS011;68470;50.224;14.348;2023-03-14T02:28:09;15.15;;;8.05;;
79066;SDS011;68470;50.224;14.348;2023-03-14T02:30:35;10.73;;;7.45;;
79066;SDS011;68470;50.224;14.348;2023-03-14T02:33:11;14.57;;;8.23;;
79066;SDS011;68470;50.224;14.348;2023-03-14T02:35:41;12.55;;;7.20;;
79066;SDS011;68470;50.224;14.348;2023-03-14T02:38:13;15.25;;;7.80;;
79066;SDS011;68470;50.224;14.348;2023-03-14T02:40:50;15.75;;;7.75;;
79066;SDS011;68470;50.224;14.348;2023-03-14T02:43:16;13.95;;;8.80;;
79066;SDS011;68470;50.224;14.348;2023-03-14T02:45:43;13.38;;;7.75;;
79066;SDS011;68470;50.224;14.348;2023-03-14T02:48:17;14.60;;;7.85;;
79066;SDS011;68470;50.224;14.348;2023-03-14T02:50:50;16.67;;;7.85;;
79066;SDS011;68470;50.224;14.348;2023-03-14T02:53:20;16.67;;;8.48;;
79066;SDS011;68470;50.224;14.348;2023-03-14T02:55:50;14.75;;;8.70;;
79066;SDS011;68470;50.224;14.348;2023-03-14T02:58:16;16.95;;;9.23;;
79066;SDS011;68470;50.224;14.348;2023-03-14T03:00:43;19.70;;;10.18;;
79066;SDS011;68470;50.224;14.348;2023-03-14T03:03:09;19.13;;;9.30;;
79066;SDS011;68470;50.224;14.348;2023-03-14T03:05:35;15.95;;;9.35;;
79066;SDS011;68470;50.224;14.348;2023-03-14T03:08:01;13.63;;;8.05;;
79066;SDS011;68470;50.224;14.348;2023-03-14T03:10:27;16.95;;;9.35;;
79066;SDS011;68470;50.224;14.348;2023-03-14T03:13:00;15.43;;;8.88;;
79066;SDS011;68470;50.224;14.348;2023-03-14T03:15:27;16.38;;;8.80;;
79066;SDS011;68470;50.224;14.348;2023-03-14T03:17:54;15.25;;;8.40;;
79066;SDS011;68470;50.224;14.348;2023-03-14T03:20:20;15.57;;;8.23;;
79066;SDS011;68470;50.224;14.348;2023-03-14T03:22:45;15.75;;;8.05;;
79066;SDS011;68470;50.224;14.348;2023-03-14T03:25:11;12.50;;;7.95;;
79066;SDS011;68470;50.224;14.348;2023-03-14T03:27:37;17.27;;;7.75;;
79066;SDS011;68470;50.224;14.348;2023-03-14T03:30:04;16.65;;;7.78;;
79066;SDS011;68470;50.224;14.348;2023-03-14T03:32:31;14.60;;;8.02;;
79066;SDS011;68470;50.224;14.348;2023-03-14T03:34:57;16.20;;;9.98;;
79066;SDS011;68470;50.224;14.348;2023-03-14T03:37:23;17.80;;;11.05;;
79066;SDS011;68470;50.224;14.348;2023-03-14T03:39:52;18.15;;;10.10;;
79066;SDS011;68470;50.224;14.348;2023-03-14T03:42:18;16.70;;;10.25;;
79066;SDS011;68470;50.224;14.348;2023-03-14T03:44:44;15.57;;;8.82;;
79066;SDS011;68470;50.224;14.348;2023-03-14T03:47:10;17.38;;;9.68;;
79066;SDS011;68470;50.224;14.348;2023-03-14T03:49:36;17.60;;;9.30;;
79066;SDS011;68470;50.224;14.348;2023-03-14T03:52:02;13.98;;;8.25;;
79066;SDS011;68470;50.224;14.348;2023-03-14T03:54:28;13.40;;;8.15;;
79066;SDS011;68470;50.224;14.348;2023-03-14T03:56:57;16.67;;;8.13;;
79066;SDS011;68470;50.224;14.348;2023-03-14T03:59:23;16.60;;;9.10;;
79066;SDS011;68470;50.224;14.348;2023-03-14T04:01:48;15.77;;;8.32;;
79066;SDS011;68470;50.224;14.348;2023-03-14T04:04:14;16.02;;;10.05;;
79066;SDS011;68470;50.224;14.348;2023-03-14T04:06:40;15.43;;;10.05;;
79066;SDS011;68470;50.224;14.348;2023-03-14T04:09:08;16.98;;;10.00;;
79066;SDS011;68470;50.224;14.348;2023-03-14T04:11:34;33.63;;;16.67;;
79066;SDS011;68470;50.224;14.348;2023-03-14T04:14:01;40.67;;;20.10;;
79066;SDS011;68470;50.224;14.348;2023-03-14T04:16:27;30.88;;;16.00;;
79066;SDS011;68470;50.224;14.348;2023-03-14T04:18:53;31.80;;;16.60;;
79066;SDS011;68470;50.224;14.348;2023-03-14T04:21:18;47.28;;;23.38;;
79066;SDS011;68470;50.224;14.348;2023-03-14T04:23:45;56.75;;;29.27;;
79066;SDS011;68470;50.224;14.348;2023-03-14T04:26:10;43.78;;;21.95;;
79066;SDS011;68470;50.224;14.348;2023-03-14T04:28:36;39.20;;;19.77;;
79066;SDS011;68470;50.224;14.348;2023-03-14T04:31:12;33.15;;;18.00;;
79066;SDS011;68470;50.224;14.348;2023-03-14T04:33:40;29.92;;;16.27;;
79066;SDS011;68470;50.224;14.348;2023-03-14T04:36:06;28.73;;;14.45;;
79066;SDS011;68470;50.224;14.348;2023-03-14T04:38:33;25.08;;;14.45;;
79066;SDS011;68470;50.224;14.348;2023-03-14T04:40:59;24.77;;;13.40;;
79066;SDS011;68470;50.224;14.348;2023-03-14T04:43:26;21.23;;;10.75;;
79066;SDS011;68470;50.224;14.348;2023-03-14T04:45:55;14.98;;;6.25;;
79066;SDS011;68470;50.224;14.348;2023-03-14T04:48:22;4.88;;;2.60;;
79066;SDS011;68470;50.224;14.348;2023-03-14T04:50:49;4.30;;;2.65;;
79066;SDS011;68470;50.224;14.348;2023-03-14T04:53:15;27.08;;;13.32;;
79066;SDS011;68470;50.224;14.348;2023-03-14T04:55:42;13.40;;;5.78;;
79066;SDS011;68470;50.224;14.348;2023-03-14T04:58:12;4.20;;;2.60;;
79066;SDS011;68470;50.224;14.348;2023-03-14T05:00:38;3.00;;;1.83;;
79066;SDS011;68470;50.224;14.348;2023-03-14T05:03:04;5.63;;;3.83;;
79066;SDS011;68470;50.224;14.348;2023-03-14T05:05:30;3.20;;;1.80;;
79066;SDS011;68470;50.224;14.348;2023-03-14T05:07:56;2.75;;;1.35;;
79066;SDS011;68470;50.224;14.348;2023-03-14T05:10:21;3.97;;;1.60;;
79066;SDS011;68470;50.224;14.348;2023-03-14T05:12:47;6.15;;;2.75;;
79066;SDS011;68470;50.224;14.348;2023-03-14T05:15:13;5.00;;;2.70;;
79066;SDS011;68470;50.224;14.348;2023-03-14T05:17:39;7.07;;;3.08;;
79066;SDS011;68470;50.224;14.348;2023-03-14T05:20:05;3.92;;;2.30;;
79066;SDS011;68470;50.224;14.348;2023-03-14T05:22:34;3.58;;;2.00;;
79066;SDS011;68470;50.224;14.348;2023-03-14T05:25:00;4.18;;;2.15;;
79066;SDS011;68470;50.224;14.348;2023-03-14T05:27:26;5.35;;;2.58;;
79066;SDS011;68470;50.224;14.348;2023-03-14T05:29:52;4.32;;;2.42;;
79066;SDS011;68470;50.224;14.348;2023-03-14T05:32:18;4.30;;;2.08;;
79066;SDS011;68470;50.224;14.348;2023-03-14T05:34:43;12.43;;;6.07;;
79066;SDS011;68470;50.224;14.348;2023-03-14T05:37:09;9.63;;;5.32;;
79066;SDS011;68470;50.224;14.348;2023-03-14T05:39:35;8.07;;;3.30;;
79066;SDS011;68470;50.224;14.348;2023-03-14T05:42:01;6.15;;;2.85;;
79066;SDS011;68470;50.224;14.348;2023-03-14T05:44:27;3.47;;;1.95;;
79066;SDS011;68470;50.224;14.348;2023-03-14T05:46:53;3.95;;;1.85;;
79066;SDS011;68470;50.224;14.348;2023-03-14T05:49:19;9.73;;;5.43;;
79066;SDS011;68470;50.224;14.348;2023-03-14T05:51:45;5.03;;;2.08;;
79066;SDS011;68470;50.224;14.348;2023-03-14T05:54:10;4.70;;;2.40;;
79066;SDS011;68470;50.224;14.348;2023-03-14T05:56:36;8.80;;;3.30;;
79066;SDS011;68470;50.224;14.348;2023-03-14T05:59:02;3.53;;;1.90;;
79066;SDS011;68470;50.224;14.348;2023-03-14T06:01:29;4.60;;;2.13;;
79066;SDS011;68470;50.224;14.348;2023-03-14T06:03:55;3.75;;;1.80;;
79066;SDS011;68470;50.224;14.348;2023-03-14T06:06:21;2.00;;;1.20;;
79066;SDS011;68470;50.224;14.348;2023-03-14T06:08:47;4.57;;;1.25;;
79066;SDS011;68470;50.224;14.348;2023-03-14T06:11:13;2.58;;;1.48;;
79066;SDS011;68470;50.224;14.348;2023-03-14T06:13:39;2.85;;;1.48;;
79066;SDS011;68470;50.224;14.348;2023-03-14T06:16:05;3.25;;;1.60;;
79066;SDS011;68470;50.224;14.348;2023-03-14T06:18:31;4.90;;;1.55;;
79066;SDS011;68470;50.224;14.348;2023-03-14T06:20:57;2.83;;;1.45;;
79066;SDS011;68470;50.224;14.348;2023-03-14T06:23:23;2.85;;;1.42;;
79066;SDS011;68470;50.224;14.348;2023-03-14T06:25:50;3.22;;;1.73;;
79066;SDS011;68470;50.224;14.348;2023-03-14T06:28:17;1.50;;;0.85;;
79066;SDS011;68470;50.224;14.348;2023-03-14T06:30:43;2.60;;;1.35;;
79066;SDS011;68470;50.224;14.348;2023-03-14T06:33:09;4.38;;;2.08;;
79066;SDS011;68470;50.224;14.348;2023-03-14T06:35:35;4.88;;;1.77;;
79066;SDS011;68470;50.224;14.348;2023-03-14T06:38:01;3.63;;;1.73;;
79066;SDS011;68470;50.224;14.348;2023-03-14T06:40:27;7.40;;;3.35;;
79066;SDS011;68470;50.224;14.348;2023-03-14T06:42:53;6.13;;;3.22;;
79066;SDS011;68470;50.224;14.348;2023-03-14T06:45:19;4.85;;;1.83;;
79066;SDS011;68470;50.224;14.348;2023-03-14T06:47:45;4.25;;;2.15;;
79066;SDS011;68470;50.224;14.348;2023-03-14T06:50:11;6.43;;;1.85;;
79066;SDS011;68470;50.224;14.348;2023-03-14T06:52:37;3.25;;;1.33;;
79066;SDS011;68470;50.224;14.348;2023-03-14T06:55:03;3.97;;;1.25;;
79066;SDS011;68470;50.224;14.348;2023-03-14T06:57:29;1.00;;;0.77;;
79066;SDS011;68470;50.224;14.348;2023-03-14T06:59:55;2.05;;;1.20;;
79066;SDS011;68470;50.224;14.348;2023-03-14T07:02:20;2.72;;;1.10;;
79066;SDS011;68470;50.224;14.348;2023-03-14T07:04:48;2.10;;;1.05;;
79066;SDS011;68470;50.224;14.348;2023-03-14T07:07:14;1.65;;;1.17;;
79066;SDS011;68470;50.224;14.348;2023-03-14T07:09:42;2.90;;;1.58;;
79066;SDS011;68470;50.224;14.348;2023-03-14T07:12:07;2.60;;;1.30;;
79066;SDS011;68470;50.224;14.348;2023-03-14T07:14:33;3.67;;;1.77;;
79066;SDS011;68470;50.224;14.348;2023-03-14T07:16:59;1.67;;;0.80;;
79066;SDS011;68470;50.224;14.348;2023-03-14T07:19:25;1.75;;;0.65;;
79066;SDS011;68470;50.224;14.348;2023-03-14T07:21:51;1.92;;;0.88;;
79066;SDS011;68470;50.224;14.348;2023-03-14T07:24:17;1.25;;;0.95;;
79066;SDS011;68470;50.224;14.348;2023-03-14T07:26:43;1.83;;;0.95;;
79066;SDS011;68470;50.224;14.348;2023-03-14T07:29:09;2.10;;;1.10;;
79066;SDS011;68470;50.224;14.348;2023-03-14T07:31:35;2.38;;;0.90;;
79066;SDS011;68470;50.224;14.348;2023-03-14T07:34:01;1.95;;;1.33;;
79066;SDS011;68470;50.224;14.348;2023-03-14T07:36:27;1.70;;;1.05;;
79066;SDS011;68470;50.224;14.348;2023-03-14T07:38:53;3.05;;;1.67;;
79066;SDS011;68470;50.224;14.348;2023-03-14T07:41:19;4.70;;;3.45;;
79066;SDS011;68470;50.224;14.348;2023-03-14T07:43:46;14.07;;;5.65;;
79066;SDS011;68470;50.224;14.348;2023-03-14T07:46:12;3.58;;;1.85;;
79066;SDS011;68470;50.224;14.348;2023-03-14T07:48:38;1.40;;;1.02;;
79066;SDS011;68470;50.224;14.348;2023-03-14T07:51:04;1.85;;;1.15;;
79066;SDS011;68470;50.224;14.348;2023-03-14T07:53:30;3.42;;;1.38;;
79066;SDS011;68470;50.224;14.348;2023-03-14T07:55:56;2.38;;;1.48;;
79066;SDS011;68470;50.224;14.348;2023-03-14T07:58:22;8.13;;;2.67;;
79066;SDS011;68470;50.224;14.348;2023-03-14T08:00:48;2.30;;;1.15;;
79066;SDS011;68470;50.224;14.348;2023-03-14T08:03:15;2.75;;;1.10;;
79066;SDS011;68470;50.224;14.348;2023-03-14T08:05:42;3.45;;;1.80;;
79066;SDS011;68470;50.224;14.348;2023-03-14T08:08:08;2.42;;;0.90;;
79066;SDS011;68470;50.224;14.348;2023-03-14T08:10:34;1.77;;;1.00;;
79066;SDS011;68470;50.224;14.348;2023-03-14T08:13:00;1.50;;;1.00;;
79066;SDS011;68470;50.224;14.348;2023-03-14T08:15:28;3.00;;;1.27;;
79066;SDS011;68470;50.224;14.348;2023-03-14T08:17:55;2.95;;;1.10;;
79066;SDS011;68470;50.224;14.348;2023-03-14T08:20:22;6.53;;;2.67;;
79066;SDS011;68470;50.224;14.348;2023-03-14T08:22:50;2.45;;;1.45;;
79066;SDS011;68470;50.224;14.348;2023-03-14T08:25:16;2.00;;;1.30;;
79066;SDS011;68470;50.224;14.348;2023-03-14T08:27:43;2.33;;;1.20;;
79066;SDS011;68470;50.224;14.348;2023-03-14T08:30:10;2.03;;;1.83;;
79066;SDS011;68470;50.224;14.348;2023-03-14T08:32:37;1.67;;;1.05;;
79066;SDS011;68470;50.224;14.348;2023-03-14T08:35:04;2.38;;;1.27;;
79066;SDS011;68470;50.224;14.348;2023-03-14T08:37:32;1.70;;;1.02;;
79066;SDS011;68470;50.224;14.348;2023-03-14T08:39:58;2.47;;;1.48;;
79066;SDS011;68470;50.224;14.348;2023-03-14T08:42:24;3.35;;;1.10;;
79066;SDS011;68470;50.224;14.348;2023-03-14T08:44:51;1.83;;;1.02;;
79066;SDS011;68470;50.224;14.348;2023-03-14T08:47:17;3.67;;;1.13;;
79066;SDS011;68470;50.224;14.348;2023-03-14T08:49:44;2.65;;;1.23;;
79066;SDS011;68470;50.224;14.348;2023-03-14T08:52:11;1.67;;;0.85;;
79066;SDS011;68470;50.224;14.348;2023-03-14T08:54:37;2.15;;;1.27;;
79066;SDS011;68470;50.224;14.348;2023-03-14T08:57:03;1.90;;;1.00;;
79066;SDS011;68470;50.224;14.348;2023-03-14T08:59:29;3.85;;;1.75;;
79066;SDS011;68470;50.224;14.348;2023-03-14T09:01:55;8.30;;;4.78;;
79066;SDS011;68470;50.224;14.348;2023-03-14T09:04:21;2.78;;;1.38;;
79066;SDS011;68470;50.224;14.348;2023-03-14T09:06:47;2.38;;;1.13;;
79066;SDS011;68470;50.224;14.348;2023-03-14T09:09:13;1.30;;;0.85;;
79066;SDS011;68470;50.224;14.348;2023-03-14T09:11:39;2.05;;;1.00;;
79066;SDS011;68470;50.224;14.348;2023-03-14T09:14:05;3.90;;;2.78;;
79066;SDS011;68470;50.224;14.348;2023-03-14T09:16:32;2.88;;;1.50;;
79066;SDS011;68470;50.224;14.348;2023-03-14T09:18:58;2.30;;;1.45;;
79066;SDS011;68470;50.224;14.348;2023-03-14T09:21:25;4.57;;;2.50;;
79066;SDS011;68470;50.224;14.348;2023-03-14T09:23:52;1.98;;;1.52;;
79066;SDS011;68470;50.224;14.348;2023-03-14T09:26:19;2.35;;;1.00;;
79066;SDS011;68470;50.224;14.348;2023-03-14T09:28:45;3.13;;;2.00;;
79066;SDS011;68470;50.224;14.348;2023-03-14T09:31:11;2.95;;;1.13;;
79066;SDS011;68470;50.224;14.348;2023-03-14T09:33:37;8.25;;;4.03;;
79066;SDS011;68470;50.224;14.348;2023-03-14T09:36:04;17.08;;;8.52;;
79066;SDS011;68470;50.224;14.348;2023-03-14T09:38:31;3.75;;;2.20;;
79066;SDS011;68470;50.224;14.348;2023-03-14T09:40:58;2.75;;;1.70;;
79066;SDS011;68470;50.224;14.348;2023-03-14T09:43:27;2.05;;;1.08;;
79066;SDS011;68470;50.224;14.348;2023-03-14T09:45:55;1.85;;;1.23;;
79066;SDS011;68470;50.224;14.348;2023-03-14T09:48:30;2.53;;;1.00;;
79066;SDS011;68470;50.224;14.348;2023-03-14T09:50:59;1.63;;;1.00;;
79066;SDS011;68470;50.224;14.348;2023-03-14T09:53:48;1.25;;;0.75;;
79066;SDS011;68470;50.224;14.348;2023-03-14T09:56:22;2.88;;;1.00;;
79066;SDS011;68470;50.224;14.348;2023-03-14T09:58:54;2.10;;;1.05;;
79066;SDS011;68470;50.224;14.348;2023-03-14T10:01:27;2.20;;;1.00;;
79066;SDS011;68470;50.224;14.348;2023-03-14T10:03:59;2.72;;;1.30;;
79066;SDS011;68470;50.224;14.348;2023-03-14T10:06:29;2.83;;;1.27;;
79066;SDS011;68470;50.224;14.348;2023-03-14T10:08:56;2.03;;;0.93;;
79066;SDS011;68470;50.224;14.348;2023-03-14T10:11:23;5.90;;;1.02;;
79066;SDS011;68470;50.224;14.348;2023-03-14T10:14:06;3.15;;;0.90;;
79066;SDS011;68470;50.224;14.348;2023-03-14T10:16:35;1.85;;;0.98;;
79066;SDS011;68470;50.224;14.348;2023-03-14T10:19:07;2.17;;;1.20;;
79066;SDS011;68470;50.224;14.348;2023-03-14T10:21:40;4.18;;;1.30;;
79066;SDS011;68470;50.224;14.348;2023-03-14T10:24:18;16.33;;;7.78;;
79066;SDS011;68470;50.224;14.348;2023-03-14T10:26:49;18.40;;;7.97;;
79066;SDS011;68470;50.224;14.348;2023-03-14T10:29:18;15.70;;;9.23;;
79066;SDS011;68470;50.224;14.348;2023-03-14T10:32:03;3.22;;;1.95;;
79066;SDS011;68470;50.224;14.348;2023-03-14T10:34:36;2.50;;;1.38;;
79066;SDS011;68470;50.224;14.348;2023-03-14T10:37:13;1.40;;;0.90;;
79066;SDS011;68470;50.224;14.348;2023-03-14T10:39:50;5.22;;;2.85;;
79066;SDS011;68470;50.224;14.348;2023-03-14T10:44:51;4.68;;;1.95;;
79066;SDS011;68470;50.224;14.348;2023-03-14T10:47:22;2.47;;;1.42;;
79066;SDS011;68470;50.224;14.348;2023-03-14T10:49:50;2.65;;;1.50;;
79066;SDS011;68470;50.224;14.348;2023-03-14T10:54:54;1.88;;;1.25;;
79066;SDS011;68470;50.224;14.348;2023-03-14T10:57:24;2.33;;;1.10;;
79066;SDS011;68470;50.224;14.348;2023-03-14T10:59:51;3.35;;;1.25;;
79066;SDS011;68470;50.224;14.348;2023-03-14T11:02:43;2.30;;;1.20;;
79066;SDS011;68470;50.224;14.348;2023-03-14T11:05:28;1.73;;;0.90;;
79066;SDS011;68470;50.224;14.348;2023-03-14T11:08:08;2.72;;;1.30;;
79066;SDS011;68470;50.224;14.348;2023-03-14T11:10:43;7.57;;;3.80;;
79066;SDS011;68470;50.224;14.348;2023-03-14T11:13:24;4.40;;;2.30;;
79066;SDS011;68470;50.224;14.348;2023-03-14T11:16:58;4.88;;;2.70;;
79066;SDS011;68470;50.224;14.348;2023-03-14T11:21:41;1.73;;;1.00;;
79066;SDS011;68470;50.224;14.348;2023-03-14T11:24:33;2.30;;;1.13;;
79066;SDS011;68470;50.224;14.348;2023-03-14T11:27:16;4.93;;;2.58;;
79066;SDS011;68470;50.224;14.348;2023-03-14T11:29:51;6.50;;;4.25;;
79066;SDS011;68470;50.224;14.348;2023-03-14T11:35:07;2.75;;;1.98;;
79066;SDS011;68470;50.224;14.348;2023-03-14T11:37:52;2.53;;;1.52;;
79066;SDS011;68470;50.224;14.348;2023-03-14T11:40:22;3.42;;;2.00;;
79066;SDS011;68470;50.224;14.348;2023-03-14T11:42:58;2.33;;;1.20;;
79066;SDS011;68470;50.224;14.348;2023-03-14T11:45:35;3.42;;;1.13;;
79066;SDS011;68470;50.224;14.348;2023-03-14T11:48:09;2.08;;;1.23;;
79066;SDS011;68470;50.224;14.348;2023-03-14T11:50:38;3.88;;;1.60;;
79066;SDS011;68470;50.224;14.348;2023-03-14T11:53:15;3.83;;;1.80;;
79066;SDS011;68470;50.224;14.348;2023-03-14T11:55:49;3.08;;;1.20;;
79066;SDS011;68470;50.224;14.348;2023-03-14T11:58:26;3.42;;;1.48;;
79066;SDS011;68470;50.224;14.348;2023-03-14T12:00:55;2.00;;;1.20;;
79066;SDS011;68470;50.224;14.348;2023-03-14T12:03:31;1.80;;;1.30;;
79066;SDS011;68470;50.224;14.348;2023-03-14T12:13:38;2.72;;;1.42;;
79066;SDS011;68470;50.224;14.348;2023-03-14T12:16:07;5.15;;;3.67;;
79066;SDS011;68470;50.224;14.348;2023-03-14T12:18:45;6.75;;;4.35;;
79066;SDS011;68470;50.224;14.348;2023-03-14T12:21:12;11.82;;;4.78;;
79066;SDS011;68470;50.224;14.348;2023-03-14T12:23:56;7.00;;;3.35;;
79066;SDS011;68470;50.224;14.348;2023-03-14T12:26:27;13.45;;;6.13;;
79066;SDS011;68470;50.224;14.348;2023-03-14T12:29:16;10.60;;;5.47;;
79066;SDS011;68470;50.224;14.348;2023-03-14T12:31:43;12.05;;;4.82;;
79066;SDS011;68470;50.224;14.348;2023-03-14T12:39:40;5.78;;;2.50;;
79066;SDS011;68470;50.224;14.348;2023-03-14T12:45:21;10.80;;;6.22;;
79066;SDS011;68470;50.224;14.348;2023-03-14T13:01:26;5.22;;;2.33;;
79066;SDS011;68470;50.224;14.348;2023-03-14T13:11:52;2.13;;;1.33;;
79066;SDS011;68470;50.224;14.348;2023-03-14T13:14:19;5.55;;;2.50;;
79066;SDS011;68470;50.224;14.348;2023-03-14T13:16:49;1.42;;;1.02;;
79066;SDS011;68470;50.224;14.348;2023-03-14T13:19:17;2.60;;;1.20;;
79066;SDS011;68470;50.224;14.348;2023-03-14T13:21:46;3.67;;;2.10;;
79066;SDS011;68470;50.224;14.348;2023-03-14T13:24:23;2.30;;;1.15;;
79066;SDS011;68470;50.224;14.348;2023-03-14T13:26:51;2.40;;;1.20;;
79066;SDS011;68470;50.224;14.348;2023-03-14T13:31:53;1.45;;;0.93;;
79066;SDS011;68470;50.224;14.348;2023-03-14T13:34:24;2.13;;;1.20;;
79066;SDS011;68470;50.224;14.348;2023-03-14T13:36:54;2.13;;;1.05;;
79066;SDS011;68470;50.224;14.348;2023-03-14T13:39:21;2.10;;;1.08;;
79066;SDS011;68470;50.224;14.348;2023-03-14T13:41:50;3.05;;;1.10;;
79066;SDS011;68470;50.224;14.348;2023-03-14T13:44:26;3.92;;;1.48;;
79066;SDS011;68470;50.224;14.348;2023-03-14T13:46:59;2.30;;;1.40;;
79066;SDS011;68470;50.224;14.348;2023-03-14T13:49:27;3.20;;;1.27;;
79066;SDS011;68470;50.224;14.348;2023-03-14T13:51:57;3.35;;;2.05;;
79066;SDS011;68470;50.224;14.348;2023-03-14T13:54:25;3.42;;;1.88;;
79066;SDS011;68470;50.224;14.348;2023-03-14T13:57:02;14.32;;;9.75;;
79066;SDS011;68470;50.224;14.348;2023-03-14T13:59:30;4.88;;;1.90;;
79066;SDS011;68470;50.224;14.348;2023-03-14T14:01:58;7.63;;;3.13;;
79066;SDS011;68470;50.224;14.348;2023-03-14T14:04:28;4.72;;;2.67;;
79066;SDS011;68470;50.224;14.348;2023-03-14T14:07:00;4.53;;;2.28;;
79066;SDS011;68470;50.224;14.348;2023-03-14T14:09:37;5.30;;;2.60;;
79066;SDS011;68470;50.224;14.348;2023-03-14T14:12:05;5.13;;;2.80;;
79066;SDS011;68470;50.224;14.348;2023-03-14T14:14:39;4.15;;;2.10;;
79066;SDS011;68470;50.224;14.348;2023-03-14T14:17:09;8.93;;;4.72;;
79066;SDS011;68470;50.224;14.348;2023-03-14T14:19:37;22.67;;;12.35;;
79066;SDS011;68470;50.224;14.348;2023-03-14T14:22:05;11.00;;;5.65;;
79066;SDS011;68470;50.224;14.348;2023-03-14T14:24:32;4.93;;;2.42;;
79066;SDS011;68470;50.224;14.348;2023-03-14T14:29:37;4.80;;;2.45;;
79066;SDS011;68470;50.224;14.348;2023-03-14T14:32:03;5.25;;;2.53;;
79066;SDS011;68470;50.224;14.348;2023-03-14T14:37:21;7.10;;;2.85;;
79066;SDS011;68470;50.224;14.348;2023-03-14T14:42:31;3.83;;;2.08;;
79066;SDS011;68470;50.224;14.348;2023-03-14T14:44:58;3.28;;;2.30;;
79066;SDS011;68470;50.224;14.348;2023-03-14T14:47:25;3.45;;;2.25;;
79066;SDS011;68470;50.224;14.348;2023-03-14T14:49:53;5.50;;;2.10;;
79066;SDS011;68470;50.224;14.348;2023-03-14T14:52:41;4.60;;;1.85;;
79066;SDS011;68470;50.224;14.348;2023-03-14T14:55:12;5.53;;;2.83;;
79066;SDS011;68470;50.224;14.348;2023-03-14T14:57:47;3.80;;;1.50;;
79066;SDS011;68470;50.224;14.348;2023-03-14T15:00:18;4.30;;;2.75;;
79066;SDS011;68470;50.224;14.348;2023-03-14T15:02:49;2.33;;;1.55;;
79066;SDS011;68470;50.224;14.348;2023-03-14T15:05:19;2.58;;;1.73;;
79066;SDS011;68470;50.224;14.348;2023-03-14T15:07:47;3.70;;;1.50;;
79066;SDS011;68470;50.224;14.348;2023-03-14T15:10:15;3.50;;;2.08;;
79066;SDS011;68470;50.224;14.348;2023-03-14T15:12:42;3.65;;;2.17;;
79066;SDS011;68470;50.224;14.348;2023-03-14T15:15:08;4.10;;;2.10;;
79066;SDS011;68470;50.224;14.348;2023-03-14T15:17:35;4.28;;;2.00;;
79066;SDS011;68470;50.224;14.348;2023-03-14T15:20:03;7.85;;;4.47;;
79066;SDS011;68470;50.224;14.348;2023-03-14T15:22:30;9.50;;;5.13;;
79066;SDS011;68470;50.224;14.348;2023-03-14T15:24:57;14.43;;;7.30;;
79066;SDS011;68470;50.224;14.348;2023-03-14T15:27:23;7.00;;;3.95;;
79066;SDS011;68470;50.224;14.348;2023-03-14T15:29:49;4.18;;;2.95;;
79066;SDS011;68470;50.224;14.348;2023-03-14T15:32:16;3.60;;;2.05;;
79066;SDS011;68470;50.224;14.348;2023-03-14T15:34:43;3.33;;;1.98;;
79066;SDS011;68470;50.224;14.348;2023-03-14T15:37:13;8.35;;;3.30;;
79066;SDS011;68470;50.224;14.348;2023-03-14T15:39:41;2.67;;;1.40;;